createdAt,value
2018-03-16T00:02:25.138Z,7.38
2018-03-16T00:04:53.442Z,7.21
2018-03-16T00:07:23.722Z,7.23
2018-03-16T00:09:52.009Z,7.16
2018-03-16T00:12:20.282Z,7.11
2018-03-16T00:14:48.560Z,6.82
2018-03-16T00:17:17.578Z,6.98
2018-03-16T00:19:45.858Z,7.05
2018-03-16T00:22:17.954Z,6.78
2018-03-16T00:24:46.998Z,6.85
2018-03-16T00:27:15.286Z,6.75
2018-03-16T00:29:44.362Z,6.59
2018-03-16T00:32:12.659Z,6.94
2018-03-16T00:34:40.959Z,6.90
2018-03-16T00:37:09.250Z,6.95
2018-03-16T00:39:37.729Z,6.86
2018-03-16T00:42:06.027Z,6.97
2018-03-16T00:44:35.117Z,6.90
2018-03-16T00:47:03.414Z,6.98
2018-03-16T00:49:31.692Z,6.99
2018-03-16T00:51:59.973Z,6.93
2018-03-16T00:54:28.254Z,6.82
2018-03-16T00:56:56.550Z,6.91
2018-03-16T00:59:25.595Z,6.83
2018-03-16T01:01:54.029Z,6.59
2018-03-16T01:04:23.058Z,6.71
2018-03-16T01:06:51.321Z,6.79
2018-03-16T01:09:20.366Z,6.72
2018-03-16T01:11:48.639Z,6.75
2018-03-16T01:14:16.916Z,6.53
2018-03-16T01:16:45.198Z,6.54
2018-03-16T01:19:13.474Z,6.61
2018-03-16T01:21:42.245Z,6.56
2018-03-16T01:24:10.522Z,6.51
2018-03-16T01:26:38.802Z,6.58
2018-03-16T01:29:07.074Z,6.52
2018-03-16T01:31:35.374Z,6.71
2018-03-16T01:34:03.646Z,6.56
2018-03-16T01:36:31.927Z,6.61
2018-03-16T01:39:00.210Z,6.45
2018-03-16T01:41:28.492Z,6.60
2018-03-16T01:43:56.773Z,6.35
2018-03-16T01:46:25.042Z,6.48
2018-03-16T01:48:53.328Z,6.60
2018-03-16T01:51:21.622Z,6.76
2018-03-16T01:53:49.899Z,6.61
2018-03-16T01:56:18.190Z,6.56
2018-03-16T01:58:46.478Z,6.51
2018-03-16T02:01:14.745Z,6.47
2018-03-16T02:03:43.030Z,6.54
2018-03-16T02:06:11.298Z,6.44
2018-03-16T02:08:39.566Z,6.27
2018-03-16T02:11:07.850Z,6.23
2018-03-16T02:13:36.114Z,6.21
2018-03-16T02:16:05.163Z,6.16
2018-03-16T02:18:33.443Z,6.16
2018-03-16T02:21:01.726Z,6.10
2018-03-16T02:23:30.909Z,6.09
2018-03-16T02:25:59.193Z,6.12
2018-03-16T02:28:27.478Z,6.06
2018-03-16T02:30:55.767Z,6.16
2018-03-16T02:33:24.038Z,6.01
2018-03-16T02:35:52.324Z,6.18
2018-03-16T02:38:20.586Z,6.22
2018-03-16T02:40:48.873Z,6.22
2018-03-16T02:43:17.168Z,6.17
2018-03-16T02:45:45.436Z,6.18
2018-03-16T02:48:13.720Z,6.12
2018-03-16T02:50:42.003Z,6.10
2018-03-16T02:53:10.286Z,6.03
2018-03-16T02:55:38.575Z,6.09
2018-03-16T02:58:06.857Z,6.14
2018-03-16T03:00:35.132Z,6.01
2018-03-16T03:03:03.410Z,6.08
2018-03-16T03:05:31.681Z,6.09
2018-03-16T03:07:59.969Z,6.08
2018-03-16T03:10:28.252Z,6.05
2018-03-16T03:12:56.522Z,5.83
2018-03-16T03:15:24.802Z,5.94
2018-03-16T03:17:53.087Z,5.95
2018-03-16T03:20:21.365Z,5.93
2018-03-16T03:22:49.639Z,5.74
2018-03-16T03:25:17.916Z,5.64
2018-03-16T03:27:46.245Z,5.90
2018-03-16T03:30:14.526Z,5.76
2018-03-16T03:32:42.801Z,5.79
2018-03-16T03:35:11.078Z,5.89
2018-03-16T03:37:39.344Z,5.81
2018-03-16T03:40:07.627Z,5.93
2018-03-16T03:42:35.898Z,5.76
2018-03-16T03:45:04.178Z,5.81
2018-03-16T03:47:32.445Z,5.72
2018-03-16T03:50:00.735Z,5.74
2018-03-16T03:52:29.013Z,5.63
2018-03-16T03:54:57.289Z,5.46
2018-03-16T03:57:25.593Z,5.61
2018-03-16T03:59:53.858Z,5.55
2018-03-16T04:02:22.121Z,5.42
2018-03-16T04:04:50.406Z,5.24
2018-03-16T04:07:18.687Z,5.24
2018-03-16T04:09:46.962Z,5.18
2018-03-16T04:12:15.241Z,5.37
2018-03-16T04:14:44.288Z,5.32
2018-03-16T04:17:12.552Z,5.48
2018-03-16T04:19:40.819Z,5.24
2018-03-16T04:22:09.110Z,5.19
2018-03-16T04:24:37.377Z,5.08
2018-03-16T04:27:06.896Z,5.15
2018-03-16T04:29:35.163Z,5.16
2018-03-16T04:32:03.448Z,5.01
2018-03-16T04:34:31.722Z,4.98
2018-03-16T04:36:59.994Z,4.90
2018-03-16T04:39:28.640Z,4.88
2018-03-16T04:41:56.910Z,5.01
2018-03-16T04:44:25.183Z,4.87
2018-03-16T04:46:53.457Z,4.78
2018-03-16T04:49:21.740Z,4.74
2018-03-16T04:51:50.021Z,4.87
2018-03-16T04:54:18.308Z,5.15
2018-03-16T04:56:46.582Z,5.12
2018-03-16T04:59:14.878Z,5.30
2018-03-16T05:01:43.316Z,4.96
2018-03-16T05:04:11.585Z,4.75
2018-03-16T05:06:40.622Z,4.92
2018-03-16T05:09:08.898Z,4.68
2018-03-16T05:11:37.180Z,4.55
2018-03-16T05:14:05.453Z,4.47
2018-03-16T05:16:33.741Z,4.41
2018-03-16T05:19:02.027Z,4.37
2018-03-16T05:21:30.294Z,4.36
2018-03-16T05:23:58.575Z,4.32
2018-03-16T05:26:26.842Z,4.32
2018-03-16T05:28:55.239Z,4.68
2018-03-16T05:31:23.531Z,4.63
2018-03-16T05:33:51.803Z,4.68
2018-03-16T05:36:20.078Z,4.27
2018-03-16T05:38:48.366Z,4.15
2018-03-16T05:41:16.631Z,4.55
2018-03-16T05:43:44.910Z,4.43
2018-03-16T05:46:13.198Z,4.27
2018-03-16T05:48:41.469Z,4.29
2018-03-16T05:51:09.749Z,4.63
2018-03-16T05:53:38.040Z,4.85
2018-03-16T05:56:06.309Z,4.58
2018-03-16T05:58:34.594Z,4.82
2018-03-16T06:01:02.862Z,4.86
2018-03-16T06:03:31.924Z,5.04
2018-03-16T06:06:00.215Z,4.90
2018-03-16T06:08:28.486Z,4.82
2018-03-16T06:10:56.766Z,5.07
2018-03-16T06:13:25.038Z,4.97
2018-03-16T06:15:53.317Z,4.86
2018-03-16T06:18:21.602Z,4.92
2018-03-16T06:20:49.869Z,5.26
2018-03-16T06:23:18.138Z,5.35
2018-03-16T06:25:46.417Z,5.40
2018-03-16T06:28:14.693Z,5.50
2018-03-16T06:30:43.222Z,5.70
2018-03-16T06:33:11.512Z,5.99
2018-03-16T06:35:39.784Z,6.23
2018-03-16T06:38:08.066Z,6.39
2018-03-16T06:40:36.928Z,7.35
2018-03-16T06:43:05.198Z,9.76
2018-03-16T06:45:33.470Z,10.77
2018-03-16T06:48:01.754Z,10.41
2018-03-16T06:50:30.022Z,8.99
2018-03-16T06:52:58.306Z,8.41
2018-03-16T06:55:26.593Z,8.11
2018-03-16T06:57:54.862Z,7.53
2018-03-16T07:00:23.908Z,7.50
2018-03-16T07:02:52.208Z,7.70
2018-03-16T07:05:20.474Z,9.26
2018-03-16T07:07:48.766Z,10.83
2018-03-16T07:10:17.045Z,11.61
2018-03-16T07:12:45.314Z,12.49
2018-03-16T07:15:31.194Z,15.89
2018-03-16T07:17:59.546Z,18.30
2018-03-16T07:20:27.764Z,18.38
2018-03-16T07:22:56.050Z,18.62
2018-03-16T07:25:24.598Z,18.74
2018-03-16T07:27:52.889Z,18.88
2018-03-16T07:30:21.185Z,19.02
2018-03-16T07:32:49.478Z,20.19
2018-03-16T07:35:17.762Z,20.29
2018-03-16T07:37:46.062Z,19.71
2018-03-16T07:40:14.350Z,20.06
2018-03-16T07:42:43.390Z,20.97
2018-03-16T07:45:11.694Z,22.86
2018-03-16T07:47:39.981Z,20.64
2018-03-16T07:50:08.261Z,20.11
2018-03-16T07:52:36.575Z,19.89
2018-03-16T07:57:48.054Z,22.93
2018-03-16T08:00:16.334Z,22.33
2018-03-16T08:02:44.610Z,23.77
2018-03-16T08:05:12.906Z,24.39
2018-03-16T08:07:41.181Z,25.99
2018-03-16T08:10:10.243Z,25.51
2018-03-16T08:12:38.546Z,25.72
2018-03-16T08:15:06.828Z,26.04
2018-03-16T08:17:35.109Z,24.93
2018-03-16T08:20:03.418Z,24.91
2018-03-16T08:22:32.465Z,25.20
2018-03-16T08:25:00.748Z,24.41
2018-03-16T08:27:29.047Z,25.48
2018-03-16T08:29:57.326Z,26.32
2018-03-16T08:32:25.607Z,26.22
2018-03-16T08:34:53.922Z,26.05
2018-03-16T08:37:22.983Z,26.20
2018-03-16T08:39:51.283Z,25.14
2018-03-16T08:42:19.576Z,23.75
2018-03-16T08:44:47.879Z,25.75
2018-03-16T08:47:16.157Z,25.42
2018-03-16T08:49:44.453Z,26.43
2018-03-16T08:52:12.746Z,26.72
2018-03-16T08:54:41.293Z,21.65
2018-03-16T08:57:10.340Z,21.60
2018-03-16T08:59:38.630Z,20.66
2018-03-16T09:02:06.924Z,19.89
2018-03-16T09:04:35.241Z,18.62
2018-03-16T09:07:04.278Z,21.17
2018-03-16T09:09:32.571Z,23.12
2018-03-16T09:12:00.850Z,21.18
2018-03-16T09:14:29.133Z,19.48
2018-03-16T09:16:57.421Z,18.03
2018-03-16T09:19:26.834Z,17.12
2018-03-16T09:21:55.123Z,16.94
2018-03-16T09:24:23.415Z,16.95
2018-03-16T09:26:51.699Z,17.07
2018-03-16T09:29:20.551Z,17.46
2018-03-16T09:31:48.847Z,18.82
2018-03-16T09:34:17.127Z,23.47
2018-03-16T09:36:45.426Z,24.81
2018-03-16T09:39:13.735Z,24.93
2018-03-16T09:41:42.029Z,27.05
2018-03-16T09:44:10.312Z,25.14
2018-03-16T09:46:38.703Z,24.60
2018-03-16T09:49:06.999Z,20.06
2018-03-16T09:51:35.274Z,17.48
2018-03-16T09:54:03.559Z,14.92
2018-03-16T09:56:31.858Z,14.61
2018-03-16T09:59:00.138Z,13.68
2018-03-16T10:01:28.418Z,13.43
2018-03-16T10:03:56.711Z,13.29
2018-03-16T10:06:24.990Z,12.67
2018-03-16T10:08:53.297Z,12.34
2018-03-16T10:11:22.373Z,12.66
2018-03-16T10:13:50.642Z,12.96
2018-03-16T10:16:18.930Z,13.21
2018-03-16T10:18:47.218Z,12.97
2018-03-16T10:21:15.493Z,13.05
2018-03-16T10:23:43.789Z,12.44
2018-03-16T10:26:12.073Z,13.27
2018-03-16T10:28:40.356Z,13.34
2018-03-16T10:31:09.953Z,14.16
2018-03-16T10:33:38.235Z,15.56
2018-03-16T10:36:07.290Z,16.37
2018-03-16T10:38:35.573Z,18.37
2018-03-16T10:41:03.879Z,20.81
2018-03-16T10:43:32.173Z,19.74
2018-03-16T10:46:00.486Z,18.70
2018-03-16T10:48:29.540Z,18.40
2018-03-16T10:50:57.823Z,16.90
2018-03-16T10:53:26.127Z,17.13
2018-03-16T10:55:54.562Z,16.55
2018-03-16T10:58:22.846Z,15.66
2018-03-16T11:00:56.711Z,15.08
2018-03-16T11:03:25.770Z,14.33
2018-03-16T11:05:54.975Z,13.76
2018-03-16T11:08:33.310Z,13.37
2018-03-16T11:11:01.590Z,13.15
2018-03-16T11:13:29.894Z,12.94
2018-03-16T11:15:58.194Z,12.55
2018-03-16T11:18:26.495Z,11.89
2018-03-16T11:20:54.770Z,11.87
2018-03-16T11:23:23.062Z,12.33
2018-03-16T11:25:51.350Z,13.47
2018-03-16T11:28:19.637Z,14.67
2018-03-16T11:30:47.930Z,15.24
2018-03-16T11:33:16.208Z,15.54
2018-03-16T11:35:44.498Z,16.87
2018-03-16T11:38:12.795Z,18.68
2018-03-16T11:40:41.841Z,18.27
2018-03-16T11:43:10.122Z,17.42
2018-03-16T11:45:38.430Z,16.46
2018-03-16T11:48:06.706Z,15.82
2018-03-16T11:50:36.230Z,15.92
2018-03-16T11:53:04.542Z,15.97
2018-03-16T11:55:32.817Z,16.43
2018-03-16T11:58:01.123Z,16.78
2018-03-16T12:00:29.418Z,16.75
2018-03-16T12:02:57.699Z,16.14
2018-03-16T12:05:26.017Z,14.77
2018-03-16T12:07:54.298Z,14.99
2018-03-16T12:10:22.580Z,14.87
2018-03-16T12:12:50.891Z,14.53
2018-03-16T12:15:19.171Z,14.14
2018-03-16T12:17:47.442Z,14.06
2018-03-16T12:20:16.507Z,14.83
2018-03-16T12:22:44.782Z,15.80
2018-03-16T12:25:13.058Z,18.25
2018-03-16T12:27:41.354Z,19.46
2018-03-16T12:30:09.634Z,19.54
2018-03-16T12:32:37.934Z,18.84
2018-03-16T12:35:06.974Z,17.25
2018-03-16T12:37:35.267Z,15.35
2018-03-16T12:40:03.563Z,14.61
2018-03-16T12:42:32.718Z,14.31
2018-03-16T12:45:01.002Z,14.64
2018-03-16T12:47:29.293Z,14.72
2018-03-16T12:49:57.561Z,14.77
2018-03-16T12:52:25.843Z,15.36
2018-03-16T12:54:54.145Z,14.57
2018-03-16T12:57:22.430Z,14.12
2018-03-16T12:59:50.711Z,13.70
2018-03-16T13:02:19.008Z,13.42
2018-03-16T13:04:47.299Z,13.78
2018-03-16T13:07:15.585Z,14.33
2018-03-16T13:09:43.896Z,13.94
2018-03-16T13:12:12.181Z,13.22
2018-03-16T13:14:40.462Z,12.55
2018-03-16T13:17:08.801Z,12.32
2018-03-16T13:19:37.035Z,12.14
2018-03-16T13:22:05.322Z,12.44
2018-03-16T13:24:33.614Z,13.46
2018-03-16T13:27:01.895Z,14.45
2018-03-16T13:29:30.184Z,14.60
2018-03-16T13:31:58.483Z,14.82
2018-03-16T13:34:26.768Z,14.84
2018-03-16T13:36:55.059Z,14.69
2018-03-16T13:39:23.345Z,14.57
2018-03-16T13:41:51.625Z,14.76
2018-03-16T13:44:19.913Z,15.25
2018-03-16T13:46:48.204Z,15.96
2018-03-16T13:49:17.266Z,16.00
2018-03-16T13:51:45.553Z,15.23
2018-03-16T13:54:14.343Z,14.86
2018-03-16T13:56:42.630Z,14.86
2018-03-16T13:59:10.917Z,14.51
2018-03-16T14:01:39.214Z,14.49
2018-03-16T14:04:08.255Z,14.01
2018-03-16T14:06:36.558Z,14.20
2018-03-16T14:09:04.869Z,15.02
2018-03-16T14:11:33.913Z,14.52
2018-03-16T14:14:02.204Z,13.91
2018-03-16T14:16:30.498Z,13.67
2018-03-16T14:18:58.778Z,14.30
2018-03-16T14:21:27.071Z,15.19
2018-03-16T14:23:55.375Z,15.13
2018-03-16T14:26:24.423Z,14.84
2018-03-16T14:28:52.719Z,14.30
2018-03-16T14:31:21.017Z,14.21
2018-03-16T14:33:49.302Z,14.29
2018-03-16T14:36:17.600Z,14.24
2018-03-16T14:38:46.650Z,14.48
2018-03-16T14:41:15.169Z,14.22
2018-03-16T14:43:43.446Z,13.70
2018-03-16T14:46:11.726Z,13.42
2018-03-16T14:48:40.030Z,13.02
2018-03-16T14:51:09.070Z,13.05
2018-03-16T14:53:37.362Z,13.05
2018-03-16T14:56:05.633Z,13.15
2018-03-16T14:58:33.915Z,13.53
2018-03-16T15:01:02.261Z,13.41
2018-03-16T15:03:31.314Z,13.44
2018-03-16T15:05:59.594Z,13.40
2018-03-16T15:08:27.884Z,13.28
2018-03-16T15:10:56.162Z,13.21
2018-03-16T15:13:24.442Z,12.80
2018-03-16T15:15:52.734Z,12.90
2018-03-16T15:18:21.009Z,12.84
2018-03-16T15:20:49.303Z,12.59
2018-03-16T15:23:17.641Z,12.66
2018-03-16T15:25:45.927Z,12.68
2018-03-16T15:28:14.990Z,12.61
2018-03-16T15:30:43.261Z,12.41
2018-03-16T15:33:12.560Z,12.25
2018-03-16T15:35:41.578Z,12.30
2018-03-16T15:38:09.833Z,12.09
2018-03-16T15:40:38.869Z,12.12
2018-03-16T15:43:07.116Z,12.15
2018-03-16T15:45:36.131Z,11.93
2018-03-16T15:48:04.400Z,11.72
2018-03-16T15:50:32.652Z,11.95
2018-03-16T15:53:00.898Z,12.06
2018-03-16T15:55:29.163Z,12.17
2018-03-16T15:57:57.404Z,12.27
2018-03-16T16:00:26.426Z,12.12
2018-03-16T16:02:54.696Z,12.08
2018-03-16T16:05:22.947Z,11.91
2018-03-16T16:07:51.204Z,12.03
2018-03-16T16:10:19.457Z,11.93
2018-03-16T16:12:47.729Z,11.95
2018-03-16T16:15:15.997Z,11.82
2018-03-16T16:17:45.016Z,11.70
2018-03-16T16:20:13.286Z,11.62
2018-03-16T16:22:41.546Z,11.44
2018-03-16T16:25:10.556Z,11.13
2018-03-16T16:27:38.828Z,11.03
2018-03-16T16:30:07.842Z,10.90
2018-03-16T16:32:37.754Z,10.76
2018-03-16T16:35:06.028Z,10.73
2018-03-16T16:37:35.372Z,10.53
2018-03-16T16:40:03.622Z,10.57
2018-03-16T16:42:32.039Z,10.34
2018-03-16T16:45:00.281Z,10.26
2018-03-16T16:47:28.533Z,10.08
2018-03-16T16:49:56.800Z,10.13
2018-03-16T16:52:25.041Z,10.14
2018-03-16T16:54:53.308Z,9.94
2018-03-16T16:57:22.304Z,9.88
2018-03-16T16:59:50.564Z,9.79
2018-03-16T17:02:19.573Z,9.67
2018-03-16T17:04:48.599Z,10.01
2018-03-16T17:07:16.853Z,9.67
2018-03-16T17:09:46.210Z,9.53
2018-03-16T17:12:15.149Z,9.59
2018-03-16T17:14:44.172Z,9.50
2018-03-16T17:17:12.417Z,9.47
2018-03-16T17:19:41.420Z,9.43
2018-03-16T17:22:10.696Z,9.32
2018-03-16T17:24:38.933Z,9.18
2018-03-16T17:27:07.180Z,9.16
2018-03-16T17:29:36.383Z,8.98
2018-03-16T17:32:05.385Z,9.06
2018-03-16T17:34:34.388Z,8.81
2018-03-16T17:37:03.886Z,8.57
2018-03-16T17:39:32.891Z,8.42
2018-03-16T17:42:01.896Z,8.41
2018-03-16T17:44:30.156Z,8.43
2018-03-16T17:46:59.176Z,8.57
2018-03-16T17:49:27.429Z,8.55
2018-03-16T17:51:56.457Z,8.55
2018-03-16T17:54:24.716Z,8.51
2018-03-16T17:56:53.742Z,8.44
2018-03-16T17:59:21.989Z,8.38
2018-03-16T18:01:51.017Z,8.32
2018-03-16T18:04:19.256Z,8.28
2018-03-16T18:06:47.512Z,8.21
2018-03-16T18:09:16.678Z,8.14
2018-03-16T18:11:44.917Z,8.07
2018-03-16T18:14:13.181Z,7.98
2018-03-16T18:16:41.428Z,8.35
2018-03-16T18:19:09.681Z,8.17
2018-03-16T18:21:38.709Z,8.17
2018-03-16T18:24:06.957Z,8.25
2018-03-16T18:26:35.976Z,8.04
2018-03-16T18:29:04.238Z,7.66
2018-03-16T18:31:33.248Z,7.43
2018-03-16T18:34:01.534Z,7.30
2018-03-16T18:36:29.736Z,7.09
2018-03-16T18:38:57.986Z,6.90
2018-03-16T18:41:26.229Z,6.80
2018-03-16T18:43:54.496Z,6.69
2018-03-16T18:46:22.736Z,6.42
2018-03-16T18:48:50.987Z,6.16
2018-03-16T18:51:20.007Z,5.93
2018-03-16T18:53:48.240Z,5.73
2018-03-16T18:56:16.500Z,5.56
2018-03-16T18:58:44.753Z,5.43
2018-03-16T19:01:13.010Z,5.26
2018-03-16T19:03:42.012Z,5.69
2018-03-16T19:06:10.409Z,5.61
2018-03-16T19:08:38.654Z,5.27
2018-03-16T19:11:07.662Z,5.11
2018-03-16T19:13:36.687Z,4.87
2018-03-16T19:16:04.929Z,4.74
2018-03-16T19:18:33.169Z,4.93
2018-03-16T19:21:01.420Z,4.57
2018-03-16T19:23:29.981Z,4.41
2018-03-16T19:25:59.001Z,4.32
2018-03-16T19:28:27.260Z,4.22
2018-03-16T19:30:56.282Z,4.14
2018-03-16T19:33:24.524Z,4.05
2018-03-16T19:35:52.780Z,4.39
2018-03-16T19:38:21.037Z,4.31
2018-03-16T19:40:49.283Z,3.97
2018-03-16T19:43:18.309Z,3.97
2018-03-16T19:45:46.552Z,3.81
2018-03-16T19:48:15.573Z,3.72
2018-03-16T19:50:43.833Z,3.67
2018-03-16T19:53:12.841Z,3.56
2018-03-16T19:55:41.850Z,3.57
2018-03-16T19:58:10.115Z,3.63
2018-03-16T20:00:39.178Z,3.42
2018-03-16T20:03:07.364Z,3.23
2018-03-16T20:05:35.616Z,3.22
2018-03-16T20:08:03.861Z,3.23
2018-03-16T20:10:32.113Z,3.23
2018-03-16T20:13:00.360Z,3.22
2018-03-16T20:15:28.617Z,3.23
2018-03-16T20:17:56.856Z,3.20
2018-03-16T20:20:25.124Z,3.15
2018-03-16T20:22:53.368Z,3.14
2018-03-16T20:25:21.615Z,3.07
2018-03-16T20:27:49.880Z,3.01
2018-03-16T20:30:18.133Z,2.92
2018-03-16T20:32:46.372Z,2.78
2018-03-16T20:35:14.621Z,2.66
2018-03-16T20:37:42.880Z,2.87
2018-03-16T20:40:11.124Z,2.51
2018-03-16T20:42:39.387Z,2.58
2018-03-16T20:45:07.652Z,2.33
2018-03-16T20:47:36.655Z,2.27
2018-03-16T20:50:05.699Z,2.17
2018-03-16T20:52:33.937Z,2.07
2018-03-16T20:55:02.947Z,2.11
2018-03-16T20:57:31.977Z,2.10
2018-03-16T21:00:00.224Z,2.05
2018-03-16T21:02:28.477Z,1.99
2018-03-16T21:04:57.485Z,2.03
2018-03-16T21:07:25.744Z,2.05
2018-03-16T21:09:53.980Z,2.01
2018-03-16T21:12:22.241Z,1.95
2018-03-16T21:14:50.507Z,1.97
2018-03-16T21:17:19.512Z,1.83
2018-03-16T21:19:47.768Z,1.82
2018-03-16T21:22:16.009Z,1.75
2018-03-16T21:24:44.257Z,1.70
2018-03-16T21:27:13.272Z,1.86
2018-03-16T21:29:41.510Z,1.68
2018-03-16T21:32:10.520Z,1.60
2018-03-16T21:34:39.520Z,1.53
2018-03-16T21:37:07.756Z,1.48
2018-03-16T21:39:36.889Z,1.54
2018-03-16T21:42:05.916Z,1.39
2018-03-16T21:44:34.162Z,1.36
2018-03-16T21:47:03.170Z,1.30
2018-03-16T21:49:32.226Z,1.22
2018-03-16T21:52:00.478Z,1.21
2018-03-16T21:54:28.767Z,1.16
2018-03-16T21:56:57.008Z,1.11
2018-03-16T21:59:26.033Z,1.54
2018-03-16T22:01:54.280Z,1.27
2018-03-16T22:04:23.285Z,1.14
2018-03-16T22:06:52.297Z,1.04
2018-03-16T22:09:20.548Z,1.00
2018-03-16T22:11:49.710Z,0.94
2018-03-16T22:14:17.982Z,1.22
2018-03-16T22:16:46.220Z,0.91
2018-03-16T22:19:15.241Z,0.87
2018-03-16T22:21:43.541Z,0.82
2018-03-16T22:24:11.764Z,0.78
2018-03-16T22:26:40.780Z,0.77
2018-03-16T22:29:09.800Z,0.71
2018-03-16T22:31:38.068Z,0.66
2018-03-16T22:34:06.305Z,0.60
2018-03-16T22:36:34.584Z,0.63
2018-03-16T22:39:02.905Z,0.59
2018-03-16T22:41:31.699Z,0.61
2018-03-16T22:43:59.960Z,0.57
2018-03-16T22:46:28.985Z,0.57
2018-03-16T22:48:57.245Z,0.67
2018-03-16T22:51:26.263Z,0.65
2018-03-16T22:53:54.511Z,0.58
2018-03-16T22:56:23.518Z,0.58
2018-03-16T22:58:52.542Z,0.58
2018-03-16T23:01:20.843Z,0.51
2018-03-16T23:03:49.062Z,0.50
2018-03-16T23:06:17.321Z,0.47
2018-03-16T23:08:45.573Z,0.46
2018-03-16T23:11:13.820Z,0.44
2018-03-16T23:13:43.865Z,0.42
2018-03-16T23:16:12.657Z,0.42
2018-03-16T23:18:40.905Z,0.42
2018-03-16T23:21:09.930Z,0.44
2018-03-16T23:23:38.168Z,0.46
2018-03-16T23:26:06.408Z,0.77
2018-03-16T23:28:34.657Z,0.76
2018-03-16T23:31:03.665Z,0.45
2018-03-16T23:33:31.991Z,0.37
2018-03-16T23:36:00.247Z,0.28
2018-03-16T23:38:28.501Z,0.23
2018-03-16T23:40:57.517Z,0.23
2018-03-16T23:43:25.755Z,0.14
2018-03-16T23:45:54.774Z,0.12
2018-03-16T23:48:24.612Z,0.11
2018-03-16T23:50:53.006Z,0.08
2018-03-16T23:53:21.262Z,0.04
2018-03-16T23:55:49.521Z,0.15
2018-03-16T23:58:18.542Z,0.11
